sensor_id;sensor_type;location;lat;lon;timestamp;pressure;altitude;pressure_sealevel;temperature;humidity
57644;BME280;43474;46.510;6.686;2023-05-02T00:02:11;96640.09;;;8.75;100.00
57644;BME280;43474;46.510;6.686;2023-05-02T00:04:37;96639.91;;;8.76;100.00
57644;BME280;43474;46.510;6.686;2023-05-02T00:07:02;96641.94;;;8.74;100.00
57644;BME280;43474;46.510;6.686;2023-05-02T00:09:28;96625.22;;;8.62;100.00
57644;BME280;43474;46.510;6.686;2023-05-02T00:11:54;96658.44;;;8.70;100.00
57644;BME280;43474;46.510;6.686;2023-05-02T00:14:19;96656.69;;;8.64;100.00
57644;BME280;43474;46.510;6.686;2023-05-02T00:16:45;96637.25;;;8.58;100.00
57644;BME280;43474;46.510;6.686;2023-05-02T00:19:10;96643.72;;;8.62;100.00
57644;BME280;43474;46.510;6.686;2023-05-02T00:21:36;96641.03;;;8.44;100.00
57644;BME280;43474;46.510;6.686;2023-05-02T00:24:01;96642.63;;;8.45;100.00
57644;BME280;43474;46.510;6.686;2023-05-02T00:26:27;96647.50;;;8.48;100.00
57644;BME280;43474;46.510;6.686;2023-05-02T00:28:53;96637.59;;;8.43;100.00
57644;BME280;43474;46.510;6.686;2023-05-02T00:31:19;96642.44;;;8.46;100.00
57644;BME280;43474;46.510;6.686;2023-05-02T00:33:44;96643.47;;;8.45;100.00
57644;BME280;43474;46.510;6.686;2023-05-02T00:36:17;96653.22;;;8.45;100.00
57644;BME280;43474;46.510;6.686;2023-05-02T00:38:43;96631.72;;;8.35;100.00
57644;BME280;43474;46.510;6.686;2023-05-02T00:41:09;96644.34;;;8.33;100.00
57644;BME280;43474;46.510;6.686;2023-05-02T00:43:35;96627.97;;;8.24;100.00
57644;BME280;43474;46.510;6.686;2023-05-02T00:46:02;96646.34;;;8.12;100.00
57644;BME280;43474;46.510;6.686;2023-05-02T00:48:27;96640.28;;;8.12;100.00
57644;BME280;43474;46.510;6.686;2023-05-02T00:50:54;96634.38;;;8.10;100.00
57644;BME280;43474;46.510;6.686;2023-05-02T00:53:19;96653.34;;;8.25;100.00
57644;BME280;43474;46.510;6.686;2023-05-02T00:55:45;96642.34;;;8.03;100.00
57644;BME280;43474;46.510;6.686;2023-05-02T00:58:13;96642.59;;;8.01;100.00
57644;BME280;43474;46.510;6.686;2023-05-02T01:03:19;96636.34;;;7.96;100.00
57644;BME280;43474;46.510;6.686;2023-05-02T01:05:57;96648.84;;;8.00;100.00
57644;BME280;43474;46.510;6.686;2023-05-02T01:12:18;96643.13;;;7.78;100.00
57644;BME280;43474;46.510;6.686;2023-05-02T01:14:24;96637.91;;;7.72;100.00
57644;BME280;43474;46.510;6.686;2023-05-02T01:16:54;96622.72;;;7.67;100.00
57644;BME280;43474;46.510;6.686;2023-05-02T01:19:31;96631.44;;;7.68;100.00
57644;BME280;43474;46.510;6.686;2023-05-02T01:22:04;96649.84;;;7.81;100.00
57644;BME280;43474;46.510;6.686;2023-05-02T01:30:05;96637.44;;;7.82;100.00
57644;BME280;43474;46.510;6.686;2023-05-02T01:32:33;96649.19;;;7.86;100.00
57644;BME280;43474;46.510;6.686;2023-05-02T01:35:01;96641.13;;;7.74;100.00
57644;BME280;43474;46.510;6.686;2023-05-02T01:37:29;96643.56;;;7.75;100.00
57644;BME280;43474;46.510;6.686;2023-05-02T01:39:56;96651.44;;;7.82;100.00
57644;BME280;43474;46.510;6.686;2023-05-02T01:42:24;96650.16;;;7.91;100.00
57644;BME280;43474;46.510;6.686;2023-05-02T01:44:53;96657.69;;;7.88;100.00
57644;BME280;43474;46.510;6.686;2023-05-02T01:47:21;96654.41;;;7.92;100.00
57644;BME280;43474;46.510;6.686;2023-05-02T01:49:48;96645.09;;;7.90;100.00
57644;BME280;43474;46.510;6.686;2023-05-02T01:52:14;96625.81;;;7.89;100.00
57644;BME280;43474;46.510;6.686;2023-05-02T01:54:40;96634.06;;;7.99;100.00
57644;BME280;43474;46.510;6.686;2023-05-02T01:57:08;96635.31;;;7.97;100.00
57644;BME280;43474;46.510;6.686;2023-05-02T01:59:36;96639.72;;;8.03;100.00
57644;BME280;43474;46.510;6.686;2023-05-02T02:02:05;96629.75;;;8.05;100.00
57644;BME280;43474;46.510;6.686;2023-05-02T02:04:33;96649.00;;;8.12;100.00
57644;BME280;43474;46.510;6.686;2023-05-02T02:07:02;96639.25;;;8.13;100.00
57644;BME280;43474;46.510;6.686;2023-05-02T02:09:30;96650.34;;;8.21;100.00
57644;BME280;43474;46.510;6.686;2023-05-02T02:12:00;96645.50;;;8.18;100.00
57644;BME280;43474;46.510;6.686;2023-05-02T02:14:39;96655.63;;;8.21;100.00
57644;BME280;43474;46.510;6.686;2023-05-02T02:17:17;96642.94;;;8.05;100.00
57644;BME280;43474;46.510;6.686;2023-05-02T02:19:47;96643.31;;;8.09;100.00
57644;BME280;43474;46.510;6.686;2023-05-02T02:22:14;96638.69;;;8.04;100.00
57644;BME280;43474;46.510;6.686;2023-05-02T02:24:45;96637.31;;;8.01;100.00
57644;BME280;43474;46.510;6.686;2023-05-02T02:27:12;96651.25;;;8.09;100.00
57644;BME280;43474;46.510;6.686;2023-05-02T02:29:38;96652.44;;;8.13;100.00
57644;BME280;43474;46.510;6.686;2023-05-02T02:32:03;96648.06;;;8.00;100.00
57644;BME280;43474;46.510;6.686;2023-05-02T02:34:29;96650.84;;;8.05;100.00
57644;BME280;43474;46.510;6.686;2023-05-02T02:36:59;96639.81;;;7.90;100.00
57644;BME280;43474;46.510;6.686;2023-05-02T02:51:01;96640.03;;;8.13;100.00
57644;BME280;43474;46.510;6.686;2023-05-02T02:56:05;96635.34;;;8.15;100.00
57644;BME280;43474;46.510;6.686;2023-05-02T02:58:53;96637.94;;;8.22;100.00
57644;BME280;43474;46.510;6.686;2023-05-02T03:01:21;96640.53;;;8.28;100.00
57644;BME280;43474;46.510;6.686;2023-05-02T03:03:47;96633.91;;;8.19;100.00
57644;BME280;43474;46.510;6.686;2023-05-02T03:06:15;96639.72;;;8.28;100.00
57644;BME280;43474;46.510;6.686;2023-05-02T03:08:42;96647.25;;;8.24;100.00
57644;BME280;43474;46.510;6.686;2023-05-02T03:11:08;96642.38;;;8.28;100.00
57644;BME280;43474;46.510;6.686;2023-05-02T03:13:34;96643.44;;;8.20;100.00
57644;BME280;43474;46.510;6.686;2023-05-02T03:16:30;96658.91;;;8.17;100.00
57644;BME280;43474;46.510;6.686;2023-05-02T03:18:57;96647.88;;;8.01;100.00
57644;BME280;43474;46.510;6.686;2023-05-02T03:21:22;96647.06;;;8.01;100.00
57644;BME280;43474;46.510;6.686;2023-05-02T03:23:48;96654.63;;;7.91;100.00
57644;BME280;43474;46.510;6.686;2023-05-02T03:26:14;96650.19;;;7.85;100.00
57644;BME280;43474;46.510;6.686;2023-05-02T03:28:40;96653.69;;;7.78;100.00
57644;BME280;43474;46.510;6.686;2023-05-02T03:31:06;96651.44;;;7.82;100.00
57644;BME280;43474;46.510;6.686;2023-05-02T03:33:32;96644.28;;;7.58;100.00
57644;BME280;43474;46.510;6.686;2023-05-02T03:35:57;96643.84;;;7.61;100.00
57644;BME280;43474;46.510;6.686;2023-05-02T03:38:23;96654.16;;;7.69;100.00
57644;BME280;43474;46.510;6.686;2023-05-02T03:40:49;96641.13;;;7.74;100.00
57644;BME280;43474;46.510;6.686;2023-05-02T03:43:15;96647.53;;;7.91;100.00
57644;BME280;43474;46.510;6.686;2023-05-02T03:45:40;96658.19;;;8.03;100.00
57644;BME280;43474;46.510;6.686;2023-05-02T03:48:06;96647.41;;;8.04;100.00
57644;BME280;43474;46.510;6.686;2023-05-02T03:50:31;96655.31;;;8.11;100.00
57644;BME280;43474;46.510;6.686;2023-05-02T03:52:57;96646.75;;;8.16;100.00
57644;BME280;43474;46.510;6.686;2023-05-02T03:55:22;96659.06;;;8.22;100.00
57644;BME280;43474;46.510;6.686;2023-05-02T03:57:48;96658.63;;;8.25;100.00
57644;BME280;43474;46.510;6.686;2023-05-02T04:00:14;96650.34;;;8.21;100.00
57644;BME280;43474;46.510;6.686;2023-05-02T04:02:39;96655.78;;;8.26;100.00
57644;BME280;43474;46.510;6.686;2023-05-02T04:05:05;96646.63;;;8.29;100.00
57644;BME280;43474;46.510;6.686;2023-05-02T04:07:31;96641.13;;;8.31;100.00
57644;BME280;43474;46.510;6.686;2023-05-02T04:09:56;96636.19;;;8.41;100.00
57644;BME280;43474;46.510;6.686;2023-05-02T04:12:22;96641.13;;;8.31;100.00
57644;BME280;43474;46.510;6.686;2023-05-02T04:14:47;96650.75;;;8.18;100.00
57644;BME280;43474;46.510;6.686;2023-05-02T04:17:13;96643.88;;;8.17;100.00
57644;BME280;43474;46.510;6.686;2023-05-02T04:19:40;96643.56;;;8.07;100.00
57644;BME280;43474;46.510;6.686;2023-05-02T04:22:05;96655.25;;;8.18;100.00
57644;BME280;43474;46.510;6.686;2023-05-02T04:24:31;96657.38;;;8.02;100.00
57644;BME280;43474;46.510;6.686;2023-05-02T04:26:57;96672.13;;;8.10;100.00
57644;BME280;43474;46.510;6.686;2023-05-02T04:29:22;96654.03;;;7.89;100.00
57644;BME280;43474;46.510;6.686;2023-05-02T04:31:48;96662.81;;;7.83;100.00
57644;BME280;43474;46.510;6.686;2023-05-02T04:34:15;96665.78;;;7.93;100.00
57644;BME280;43474;46.510;6.686;2023-05-02T04:36:40;96668.50;;;7.80;100.00
57644;BME280;43474;46.510;6.686;2023-05-02T04:39:06;96655.13;;;7.74;100.00
57644;BME280;43474;46.510;6.686;2023-05-02T04:41:32;96670.78;;;7.76;100.00
57644;BME280;43474;46.510;6.686;2023-05-02T04:43:58;96673.25;;;7.64;100.00
57644;BME280;43474;46.510;6.686;2023-05-02T04:46:24;96677.13;;;7.62;100.00
57644;BME280;43474;46.510;6.686;2023-05-02T04:48:49;96679.72;;;7.68;100.00
57644;BME280;43474;46.510;6.686;2023-05-02T04:51:15;96690.09;;;7.63;100.00
57644;BME280;43474;46.510;6.686;2023-05-02T04:53:40;96700.38;;;7.78;100.00
57644;BME280;43474;46.510;6.686;2023-05-02T04:56:07;96702.63;;;7.74;100.00
57644;BME280;43474;46.510;6.686;2023-05-02T04:58:32;96709.38;;;7.64;100.00
57644;BME280;43474;46.510;6.686;2023-05-02T05:00:59;96708.56;;;7.63;100.00
57644;BME280;43474;46.510;6.686;2023-05-02T05:03:25;96716.25;;;7.65;100.00
57644;BME280;43474;46.510;6.686;2023-05-02T05:05:52;96730.59;;;7.75;100.00
57644;BME280;43474;46.510;6.686;2023-05-02T05:08:17;96733.69;;;7.72;100.00
57644;BME280;43474;46.510;6.686;2023-05-02T05:10:43;96730.06;;;7.67;100.00
57644;BME280;43474;46.510;6.686;2023-05-02T05:13:08;96724.16;;;7.65;100.00
57644;BME280;43474;46.510;6.686;2023-05-02T05:15:36;96716.88;;;7.60;100.00
57644;BME280;43474;46.510;6.686;2023-05-02T05:18:03;96721.34;;;7.60;100.00
57644;BME280;43474;46.510;6.686;2023-05-02T05:20:28;96714.19;;;7.73;100.00
57644;BME280;43474;46.510;6.686;2023-05-02T05:22:54;96725.13;;;7.77;100.00
57644;BME280;43474;46.510;6.686;2023-05-02T05:25:20;96738.28;;;7.84;100.00
57644;BME280;43474;46.510;6.686;2023-05-02T05:27:45;96738.47;;;7.89;100.00
57644;BME280;43474;46.510;6.686;2023-05-02T05:30:11;96738.81;;;7.99;100.00
57644;BME280;43474;46.510;6.686;2023-05-02T05:32:37;96746.72;;;7.99;100.00
57644;BME280;43474;46.510;6.686;2023-05-02T05:35:03;96751.31;;;8.10;100.00
57644;BME280;43474;46.510;6.686;2023-05-02T05:37:29;96740.13;;;8.15;100.00
57644;BME280;43474;46.510;6.686;2023-05-02T05:39:55;96746.66;;;8.44;100.00
57644;BME280;43474;46.510;6.686;2023-05-02T05:42:20;96729.97;;;8.50;100.00
57644;BME280;43474;46.510;6.686;2023-05-02T05:44:46;96739.94;;;8.73;100.00
57644;BME280;43474;46.510;6.686;2023-05-02T05:47:11;96721.59;;;8.78;100.00
57644;BME280;43474;46.510;6.686;2023-05-02T05:49:37;96739.06;;;9.22;100.00
57644;BME280;43474;46.510;6.686;2023-05-02T05:52:02;96737.44;;;9.40;100.00
57644;BME280;43474;46.510;6.686;2023-05-02T05:54:29;96729.88;;;9.62;100.00
57644;BME280;43474;46.510;6.686;2023-05-02T05:56:54;96731.84;;;9.66;100.00
57644;BME280;43474;46.510;6.686;2023-05-02T05:59:20;96739.44;;;9.93;100.00
57644;BME280;43474;46.510;6.686;2023-05-02T06:01:45;96739.19;;;9.94;100.00
57644;BME280;43474;46.510;6.686;2023-05-02T06:04:11;96738.13;;;10.14;100.00
57644;BME280;43474;46.510;6.686;2023-05-02T06:06:37;96730.78;;;10.16;100.00
57644;BME280;43474;46.510;6.686;2023-05-02T06:09:02;96727.38;;;10.27;100.00
57644;BME280;43474;46.510;6.686;2023-05-02T06:11:28;96744.13;;;10.51;100.00
57644;BME280;43474;46.510;6.686;2023-05-02T06:13:54;96746.59;;;10.76;100.00
57644;BME280;43474;46.510;6.686;2023-05-02T06:16:20;96733.81;;;10.96;100.00
57644;BME280;43474;46.510;6.686;2023-05-02T06:18:46;96745.44;;;11.30;100.00
57644;BME280;43474;46.510;6.686;2023-05-02T06:21:11;96750.84;;;11.87;100.00
57644;BME280;43474;46.510;6.686;2023-05-02T06:23:37;96755.91;;;12.63;100.00
57644;BME280;43474;46.510;6.686;2023-05-02T06:26:04;96769.75;;;13.49;100.00
57644;BME280;43474;46.510;6.686;2023-05-02T06:28:30;96766.63;;;14.23;100.00
57644;BME280;43474;46.510;6.686;2023-05-02T06:31:00;96764.97;;;15.03;100.00
57644;BME280;43474;46.510;6.686;2023-05-02T06:33:27;96761.97;;;15.32;100.00
57644;BME280;43474;46.510;6.686;2023-05-02T06:35:53;96742.03;;;15.02;100.00
57644;BME280;43474;46.510;6.686;2023-05-02T06:38:19;96770.25;;;15.77;100.00
57644;BME280;43474;46.510;6.686;2023-05-02T06:40:45;96771.41;;;16.02;98.03
57644;BME280;43474;46.510;6.686;2023-05-02T06:43:11;96765.59;;;16.41;94.89
57644;BME280;43474;46.510;6.686;2023-05-02T06:45:37;96769.59;;;16.23;95.91
57644;BME280;43474;46.510;6.686;2023-05-02T06:48:03;96760.81;;;16.38;94.43
57644;BME280;43474;46.510;6.686;2023-05-02T06:50:28;96765.38;;;17.29;92.96
57644;BME280;43474;46.510;6.686;2023-05-02T06:52:54;96772.94;;;16.86;91.48
57644;BME280;43474;46.510;6.686;2023-05-02T06:55:20;96765.41;;;16.73;89.74
57644;BME280;43474;46.510;6.686;2023-05-02T06:57:47;96771.06;;;16.76;90.79
57644;BME280;43474;46.510;6.686;2023-05-02T07:00:15;96763.50;;;17.29;90.92
57644;BME280;43474;46.510;6.686;2023-05-02T07:02:41;96780.63;;;17.44;86.50
57644;BME280;43474;46.510;6.686;2023-05-02T07:05:06;96779.03;;;16.61;87.04
57644;BME280;43474;46.510;6.686;2023-05-02T07:07:32;96773.16;;;17.36;87.08
57644;BME280;43474;46.510;6.686;2023-05-02T07:09:58;96776.06;;;17.44;87.39
57644;BME280;43474;46.510;6.686;2023-05-02T07:12:24;96784.06;;;17.54;84.90
57644;BME280;43474;46.510;6.686;2023-05-02T07:14:50;96767.81;;;18.16;86.41
57644;BME280;43474;46.510;6.686;2023-05-02T07:17:16;96778.63;;;18.00;81.08
57644;BME280;43474;46.510;6.686;2023-05-02T07:19:48;96764.66;;;17.98;80.84
57644;BME280;43474;46.510;6.686;2023-05-02T07:22:13;96763.72;;;18.68;79.93
57644;BME280;43474;46.510;6.686;2023-05-02T07:24:40;96770.81;;;18.53;77.25
57644;BME280;43474;46.510;6.686;2023-05-02T07:27:08;96766.53;;;18.03;80.00
57644;BME280;43474;46.510;6.686;2023-05-02T07:29:33;96776.22;;;18.88;83.20
57644;BME280;43474;46.510;6.686;2023-05-02T07:31:59;96777.22;;;18.97;78.92
57644;BME280;43474;46.510;6.686;2023-05-02T07:34:25;96765.75;;;19.49;77.12
57644;BME280;43474;46.510;6.686;2023-05-02T07:36:51;96753.03;;;19.31;75.33
57644;BME280;43474;46.510;6.686;2023-05-02T07:39:16;96766.50;;;19.26;76.13
57644;BME280;43474;46.510;6.686;2023-05-02T07:41:42;96760.44;;;19.39;71.07
57644;BME280;43474;46.510;6.686;2023-05-02T07:44:07;96770.94;;;19.41;72.26
57644;BME280;43474;46.510;6.686;2023-05-02T07:46:33;96769.25;;;19.74;74.34
57644;BME280;43474;46.510;6.686;2023-05-02T07:48:58;96763.00;;;20.02;73.67
57644;BME280;43474;46.510;6.686;2023-05-02T07:51:24;96766.59;;;20.92;75.08
57644;BME280;43474;46.510;6.686;2023-05-02T07:53:51;96772.97;;;21.15;68.89
57644;BME280;43474;46.510;6.686;2023-05-02T07:56:20;96762.47;;;20.81;69.85
57644;BME280;43474;46.510;6.686;2023-05-02T07:58:46;96759.56;;;20.39;71.80
57644;BME280;43474;46.510;6.686;2023-05-02T08:01:11;96758.88;;;20.10;67.73
57644;BME280;43474;46.510;6.686;2023-05-02T08:03:37;96758.53;;;20.73;71.76
57644;BME280;43474;46.510;6.686;2023-05-02T08:06:02;96756.91;;;21.24;73.80
57644;BME280;43474;46.510;6.686;2023-05-02T08:08:28;96752.66;;;21.36;72.76
57644;BME280;43474;46.510;6.686;2023-05-02T08:10:53;96747.16;;;20.95;64.59
57644;BME280;43474;46.510;6.686;2023-05-02T08:13:19;96757.31;;;20.98;63.96
57644;BME280;43474;46.510;6.686;2023-05-02T08:15:45;96762.75;;;20.79;64.20
57644;BME280;43474;46.510;6.686;2023-05-02T08:18:10;96760.19;;;20.88;66.29
57644;BME280;43474;46.510;6.686;2023-05-02T08:20:36;96757.38;;;20.79;59.65
57644;BME280;43474;46.510;6.686;2023-05-02T08:23:02;96764.81;;;20.50;62.47
57644;BME280;43474;46.510;6.686;2023-05-02T08:25:28;96759.63;;;20.53;63.25
57644;BME280;43474;46.510;6.686;2023-05-02T08:27:54;96753.56;;;21.13;61.94
57644;BME280;43474;46.510;6.686;2023-05-02T08:30:20;96770.94;;;21.07;68.52
57644;BME280;43474;46.510;6.686;2023-05-02T08:32:45;96756.41;;;20.89;64.51
57644;BME280;43474;46.510;6.686;2023-05-02T08:35:11;96772.06;;;21.52;66.06
57644;BME280;43474;46.510;6.686;2023-05-02T08:37:38;96753.84;;;21.30;62.46
57644;BME280;43474;46.510;6.686;2023-05-02T08:40:04;96779.94;;;21.16;70.40
57644;BME280;43474;46.510;6.686;2023-05-02T08:42:32;96767.47;;;19.88;64.68
57644;BME280;43474;46.510;6.686;2023-05-02T08:44:57;96778.53;;;19.62;70.79
57644;BME280;43474;46.510;6.686;2023-05-02T08:47:24;96768.22;;;19.94;68.80
57644;BME280;43474;46.510;6.686;2023-05-02T08:49:50;96763.69;;;18.78;71.56
57644;BME280;43474;46.510;6.686;2023-05-02T08:52:18;96760.56;;;19.00;74.07
57644;BME280;43474;46.510;6.686;2023-05-02T08:54:45;96768.25;;;20.12;69.27
57644;BME280;43474;46.510;6.686;2023-05-02T08:57:11;96758.97;;;19.81;66.33
57644;BME280;43474;46.510;6.686;2023-05-02T08:59:36;96774.22;;;20.09;69.56
57644;BME280;43474;46.510;6.686;2023-05-02T09:02:11;96783.78;;;19.73;64.23
57644;BME280;43474;46.510;6.686;2023-05-02T09:04:40;96772.81;;;19.69;66.65
57644;BME280;43474;46.510;6.686;2023-05-02T09:07:06;96770.06;;;20.17;64.60
57644;BME280;43474;46.510;6.686;2023-05-02T09:09:33;96780.97;;;20.50;66.82
57644;BME280;43474;46.510;6.686;2023-05-02T09:11:58;96778.63;;;20.62;68.44
57644;BME280;43474;46.510;6.686;2023-05-02T09:14:24;96773.41;;;21.03;67.15
57644;BME280;43474;46.510;6.686;2023-05-02T09:16:49;96780.25;;;21.28;60.95
57644;BME280;43474;46.510;6.686;2023-05-02T09:19:25;96767.25;;;21.16;68.58
57644;BME280;43474;46.510;6.686;2023-05-02T09:21:50;96771.59;;;21.64;62.18
57644;BME280;43474;46.510;6.686;2023-05-02T09:24:19;96766.97;;;21.51;64.06
57644;BME280;43474;46.510;6.686;2023-05-02T09:27:02;96775.44;;;20.79;59.76
57644;BME280;43474;46.510;6.686;2023-05-02T09:29:29;96763.84;;;21.11;61.20
57644;BME280;43474;46.510;6.686;2023-05-02T09:32:01;96766.56;;;20.59;60.52
57644;BME280;43474;46.510;6.686;2023-05-02T09:34:28;96781.28;;;20.43;64.94
57644;BME280;43474;46.510;6.686;2023-05-02T09:36:53;96792.03;;;20.48;62.97
57644;BME280;43474;46.510;6.686;2023-05-02T09:39:24;96778.16;;;20.17;65.26
57644;BME280;43474;46.510;6.686;2023-05-02T09:41:50;96782.72;;;20.59;63.95
57644;BME280;43474;46.510;6.686;2023-05-02T09:44:18;96778.97;;;20.93;63.35
57644;BME280;43474;46.510;6.686;2023-05-02T09:46:48;96782.00;;;21.05;61.76
57644;BME280;43474;46.510;6.686;2023-05-02T09:49:14;96769.75;;;21.13;61.74
57644;BME280;43474;46.510;6.686;2023-05-02T09:51:43;96768.47;;;21.71;65.18
57644;BME280;43474;46.510;6.686;2023-05-02T09:54:09;96775.19;;;21.73;53.11
57644;BME280;43474;46.510;6.686;2023-05-02T09:56:51;96765.03;;;21.37;58.19
57644;BME280;43474;46.510;6.686;2023-05-02T09:59:18;96784.41;;;21.07;57.66
57644;BME280;43474;46.510;6.686;2023-05-02T10:01:43;96785.53;;;20.87;55.95
57644;BME280;43474;46.510;6.686;2023-05-02T10:04:13;96772.50;;;20.94;60.79
57644;BME280;43474;46.510;6.686;2023-05-02T10:06:43;96780.16;;;21.20;56.61
57644;BME280;43474;46.510;6.686;2023-05-02T10:09:09;96782.50;;;21.07;56.89
57644;BME280;43474;46.510;6.686;2023-05-02T10:11:37;96774.91;;;20.96;57.03
57644;BME280;43474;46.510;6.686;2023-05-02T10:14:08;96779.59;;;20.71;57.37
57644;BME280;43474;46.510;6.686;2023-05-02T10:16:35;96785.25;;;20.88;62.95
57644;BME280;43474;46.510;6.686;2023-05-02T10:19:08;96776.72;;;21.00;59.50
57644;BME280;43474;46.510;6.686;2023-05-02T10:21:35;96764.34;;;20.99;54.77
57644;BME280;43474;46.510;6.686;2023-05-02T10:24:02;96787.31;;;21.43;58.95
57644;BME280;43474;46.510;6.686;2023-05-02T10:26:28;96790.63;;;21.21;53.44
57644;BME280;43474;46.510;6.686;2023-05-02T10:28:55;96790.94;;;21.20;59.12
57644;BME280;43474;46.510;6.686;2023-05-02T10:31:21;96775.75;;;21.56;60.08
57644;BME280;43474;46.510;6.686;2023-05-02T10:33:49;96767.13;;;22.37;59.87
57644;BME280;43474;46.510;6.686;2023-05-02T10:36:19;96782.97;;;22.30;52.03
57644;BME280;43474;46.510;6.686;2023-05-02T10:38:45;96773.28;;;22.29;60.10
57644;BME280;43474;46.510;6.686;2023-05-02T10:41:13;96780.03;;;22.76;55.65
57644;BME280;43474;46.510;6.686;2023-05-02T10:43:47;96771.66;;;21.73;56.65
57644;BME280;43474;46.510;6.686;2023-05-02T10:46:38;96773.88;;;22.12;52.01
57644;BME280;43474;46.510;6.686;2023-05-02T10:49:10;96778.88;;;22.05;47.07
57644;BME280;43474;46.510;6.686;2023-05-02T10:51:37;96760.78;;;22.33;48.32
57644;BME280;43474;46.510;6.686;2023-05-02T10:54:23;96754.59;;;21.91;51.44
57644;BME280;43474;46.510;6.686;2023-05-02T10:59:28;96759.50;;;21.89;52.71
57644;BME280;43474;46.510;6.686;2023-05-02T11:01:55;96776.16;;;21.77;52.42
57644;BME280;43474;46.510;6.686;2023-05-02T11:04:20;96760.47;;;22.07;53.15
57644;BME280;43474;46.510;6.686;2023-05-02T11:11:47;96751.50;;;21.70;53.84
57644;BME280;43474;46.510;6.686;2023-05-02T11:19:28;96760.00;;;22.18;47.71
57644;BME280;43474;46.510;6.686;2023-05-02T11:24:43;96757.25;;;22.32;55.45
57644;BME280;43474;46.510;6.686;2023-05-02T11:30:00;96759.09;;;21.54;50.73
57644;BME280;43474;46.510;6.686;2023-05-02T11:37:52;96773.47;;;21.63;53.12
57644;BME280;43474;46.510;6.686;2023-05-02T11:40:18;96777.44;;;21.52;54.66
57644;BME280;43474;46.510;6.686;2023-05-02T11:42:43;96757.69;;;21.71;52.09
57644;BME280;43474;46.510;6.686;2023-05-02T11:45:09;96762.38;;;22.06;59.97
57644;BME280;43474;46.510;6.686;2023-05-02T11:47:35;96762.47;;;22.01;58.51
57644;BME280;43474;46.510;6.686;2023-05-02T11:50:04;96774.69;;;21.99;58.59
57644;BME280;43474;46.510;6.686;2023-05-02T11:52:29;96745.16;;;22.30;60.47
57644;BME280;43474;46.510;6.686;2023-05-02T11:55:01;96750.59;;;22.52;59.21
57644;BME280;43474;46.510;6.686;2023-05-02T11:57:26;96737.09;;;22.16;53.65
57644;BME280;43474;46.510;6.686;2023-05-02T11:59:54;96759.38;;;21.94;54.57
57644;BME280;43474;46.510;6.686;2023-05-02T12:02:39;96744.31;;;21.93;47.73
57644;BME280;43474;46.510;6.686;2023-05-02T12:05:06;96759.28;;;21.85;51.47
57644;BME280;43474;46.510;6.686;2023-05-02T12:10:06;96752.50;;;22.15;53.01
57644;BME280;43474;46.510;6.686;2023-05-02T12:12:32;96753.69;;;22.23;56.51
57644;BME280;43474;46.510;6.686;2023-05-02T12:15:02;96760.97;;;21.81;55.71
57644;BME280;43474;46.510;6.686;2023-05-02T12:17:29;96752.38;;;22.07;55.21
57644;BME280;43474;46.510;6.686;2023-05-02T12:19:55;96761.50;;;21.70;51.11
57644;BME280;43474;46.510;6.686;2023-05-02T12:22:22;96752.72;;;20.85;53.93
57644;BME280;43474;46.510;6.686;2023-05-02T12:24:49;96767.53;;;21.01;51.39
57644;BME280;43474;46.510;6.686;2023-05-02T12:27:15;96777.19;;;20.88;51.07
57644;BME280;43474;46.510;6.686;2023-05-02T12:29:46;96769.06;;;21.40;55.53
57644;BME280;43474;46.510;6.686;2023-05-02T12:32:13;96763.38;;;21.23;53.96
57644;BME280;43474;46.510;6.686;2023-05-02T12:34:39;96761.84;;;21.35;58.49
57644;BME280;43474;46.510;6.686;2023-05-02T12:37:06;96786.28;;;21.85;54.61
57644;BME280;43474;46.510;6.686;2023-05-02T12:39:41;96778.25;;;21.66;50.26
57644;BME280;43474;46.510;6.686;2023-05-02T12:42:10;96775.88;;;21.19;49.04
57644;BME280;43474;46.510;6.686;2023-05-02T12:44:37;96773.25;;;21.46;61.01
57644;BME280;43474;46.510;6.686;2023-05-02T12:47:03;96764.16;;;21.42;48.16
57644;BME280;43474;46.510;6.686;2023-05-02T12:49:29;96757.91;;;21.74;56.39
57644;BME280;43474;46.510;6.686;2023-05-02T12:51:55;96764.00;;;21.80;51.60
57644;BME280;43474;46.510;6.686;2023-05-02T12:54:21;96746.50;;;21.63;55.77
57644;BME280;43474;46.510;6.686;2023-05-02T12:56:47;96766.16;;;21.50;50.65
57644;BME280;43474;46.510;6.686;2023-05-02T12:59:28;96755.00;;;21.24;52.92
57644;BME280;43474;46.510;6.686;2023-05-02T13:01:54;96773.84;;;21.10;51.67
57644;BME280;43474;46.510;6.686;2023-05-02T13:04:19;96764.34;;;21.13;54.65
57644;BME280;43474;46.510;6.686;2023-05-02T13:06:45;96774.56;;;21.16;53.44
57644;BME280;43474;46.510;6.686;2023-05-02T13:09:11;96758.25;;;21.07;56.69
57644;BME280;43474;46.510;6.686;2023-05-02T13:11:36;96762.75;;;20.79;53.00
57644;BME280;43474;46.510;6.686;2023-05-02T13:14:03;96773.78;;;21.29;60.67
57644;BME280;43474;46.510;6.686;2023-05-02T13:16:30;96771.06;;;21.15;52.44
57644;BME280;43474;46.510;6.686;2023-05-02T13:18:55;96771.97;;;20.92;53.09
57644;BME280;43474;46.510;6.686;2023-05-02T13:21:21;96766.84;;;21.09;55.51
57644;BME280;43474;46.510;6.686;2023-05-02T13:23:47;96760.63;;;20.95;54.51
57644;BME280;43474;46.510;6.686;2023-05-02T13:26:14;96748.66;;;21.01;55.25
57644;BME280;43474;46.510;6.686;2023-05-02T13:28:40;96732.63;;;20.77;54.38
57644;BME280;43474;46.510;6.686;2023-05-02T13:31:06;96746.13;;;20.91;55.76
57644;BME280;43474;46.510;6.686;2023-05-02T13:33:32;96757.38;;;21.12;52.83
57644;BME280;43474;46.510;6.686;2023-05-02T13:35:57;96765.09;;;21.19;57.74
57644;BME280;43474;46.510;6.686;2023-05-02T13:38:23;96750.44;;;20.73;55.62
57644;BME280;43474;46.510;6.686;2023-05-02T13:40:49;96760.81;;;19.56;53.26
57644;BME280;43474;46.510;6.686;2023-05-02T13:43:15;96764.56;;;18.63;53.93
57644;BME280;43474;46.510;6.686;2023-05-02T13:45:40;96776.69;;;18.60;59.29
57644;BME280;43474;46.510;6.686;2023-05-02T13:48:07;96762.50;;;18.55;59.21
57644;BME280;43474;46.510;6.686;2023-05-02T13:50:32;96761.88;;;19.02;60.53
57644;BME280;43474;46.510;6.686;2023-05-02T13:53:01;96756.59;;;19.50;57.59